Time;durP1;ratioP1;P1;durP2;ratioP2;P2;SDS_P1;SDS_P2;PMS_P1;PMS_P2;Temp;Humidity;BMP_temperature;BMP_pressure;BME280_temperature;BME280_humidity;BME280_pressure;Samples;Min_cycle;Max_cycle;Signal;HPM_P1;HPM_P2
2022/08/22 00:02:26;;;;;;;4.43;2.87;;;17.70;99.90;;;;;;5239430;28;20439;-49
2022/08/22 00:05:02;;;;;;;4.27;2.83;;;17.60;99.90;;;;;;5237924;28;20636;-50
2022/08/22 00:07:49;;;;;;;3.90;2.60;;;17.60;99.90;;;;;;5240516;28;20424;-49
2022/08/22 00:10:25;;;;;;;5.93;2.53;;;17.60;99.90;;;;;;5241164;28;20528;-49
2022/08/22 00:13:11;;;;;;;7.50;2.80;;;17.50;99.90;;;;;;5241307;28;20462;-49
2022/08/22 00:16:02;;;;;;;6.60;2.80;;;17.50;99.90;;;;;;5239225;28;20776;-50
2022/08/22 00:18:48;;;;;;;10.37;5.13;;;17.40;99.90;;;;;;5241246;28;20431;-49
2022/08/22 00:21:37;;;;;;;4.33;3.93;;;17.40;99.90;;;;;;5236050;28;20519;-51
2022/08/22 00:24:32;;;;;;;3.07;2.87;;;17.30;99.90;;;;;;5242121;28;20484;-50
2022/08/22 00:27:14;;;;;;;2.63;2.53;;;17.30;99.90;;;;;;5238471;28;20451;-50
2022/08/22 00:29:51;;;;;;;6.70;2.73;;;17.20;99.90;;;;;;5232873;28;20825;-50
2022/08/22 00:32:31;;;;;;;4.07;3.13;;;17.20;99.90;;;;;;5244385;28;20428;-52
2022/08/22 00:35:06;;;;;;;8.10;2.90;;;17.10;99.90;;;;;;5238537;28;20449;-50
2022/08/22 00:38:02;;;;;;;2.93;2.73;;;17.10;99.90;;;;;;5237774;28;20951;-48
2022/08/22 00:40:45;;;;;;;3.20;3.00;;;17.10;99.90;;;;;;5227675;28;20809;-49
2022/08/22 00:43:36;;;;;;;6.67;3.47;;;17.20;99.90;;;;;;5239270;28;20996;-49
2022/08/22 00:46:36;;;;;;;4.60;2.80;;;17.20;99.90;;;;;;5235360;28;20929;-49
2022/08/22 00:49:20;;;;;;;3.37;2.70;;;17.20;99.90;;;;;;5243968;28;20547;-50
2022/08/22 00:52:28;;;;;;;4.43;2.77;;;17.10;99.90;;;;;;5241790;28;20472;-50
2022/08/22 00:55:45;;;;;;;1.90;1.80;;;17.10;99.90;;;;;;5238595;28;20475;-49
2022/08/22 00:58:40;;;;;;;2.80;2.60;;;17.10;99.90;;;;;;5205369;28;20443;-48
2022/08/22 01:01:16;;;;;;;2.87;2.67;;;17.00;99.90;;;;;;5242049;28;20786;-52
2022/08/22 01:04:06;;;;;;;3.40;3.10;;;17.00;99.90;;;;;;5242546;28;20471;-48
2022/08/22 01:06:37;;;;;;;6.03;3.27;;;17.00;99.90;;;;;;5248762;28;20423;-49
2022/08/22 01:09:30;;;;;;;5.90;3.67;;;16.90;99.90;;;;;;5240816;28;20456;-51
2022/08/22 01:12:36;;;;;;;3.30;2.93;;;16.90;99.90;;;;;;5244275;28;20442;-48
2022/08/22 01:15:10;;;;;;;4.77;4.17;;;16.80;99.90;;;;;;5258498;28;20439;-48
2022/08/22 01:17:40;;;;;;;6.07;4.13;;;16.80;99.90;;;;;;5253554;28;20425;-50
2022/08/22 01:20:45;;;;;;;3.90;3.07;;;16.70;99.90;;;;;;5242717;28;20439;-49
2022/08/22 01:23:47;;;;;;;4.63;2.80;;;16.70;99.90;;;;;;5243675;28;20622;-48
2022/08/22 01:26:47;;;;;;;2.70;2.50;;;16.60;99.90;;;;;;5242300;28;20451;-48
2022/08/22 01:29:45;;;;;;;2.90;2.70;;;16.60;99.90;;;;;;5239383;28;20493;-49
2022/08/22 01:32:30;;;;;;;3.33;3.10;;;16.60;99.90;;;;;;5238835;28;20445;-50
2022/08/22 01:35:21;;;;;;;3.17;2.97;;;16.60;99.90;;;;;;5241145;28;20987;-50
2022/08/22 01:38:16;;;;;;;2.47;2.27;;;16.60;99.90;;;;;;5244714;28;20487;-48
2022/08/22 01:41:26;;;;;;;7.20;3.10;;;16.60;99.90;;;;;;5237628;28;20834;-49
2022/08/22 01:44:06;;;;;;;5.93;2.73;;;16.60;99.90;;;;;;5208391;28;20536;-50
2022/08/22 01:46:50;;;;;;;2.43;2.30;;;16.70;99.90;;;;;;5243814;28;20813;-49
2022/08/22 01:49:45;;;;;;;3.13;2.83;;;16.70;99.90;;;;;;5244902;28;20457;-47
2022/08/22 01:52:40;;;;;;;3.70;3.07;;;16.70;99.90;;;;;;5238648;28;20428;-49
2022/08/22 01:55:28;;;;;;;3.67;2.87;;;16.60;99.90;;;;;;5236690;28;20434;-49
2022/08/22 01:58:02;;;;;;;3.40;2.60;;;16.60;99.90;;;;;;5236605;28;20429;-48
2022/08/22 02:01:05;;;;;;;4.87;2.30;;;16.50;99.90;;;;;;5240354;28;20447;-48
2022/08/22 02:03:50;;;;;;;3.87;3.07;;;16.50;99.90;;;;;;5239995;28;20535;-48
2022/08/22 02:06:32;;;;;;;3.30;2.67;;;16.50;99.90;;;;;;5242190;28;21224;-50
2022/08/22 02:09:31;;;;;;;3.87;3.57;;;16.50;99.90;;;;;;5239145;28;20535;-49
2022/08/22 02:12:15;;;;;;;4.83;3.00;;;16.50;99.90;;;;;;5239425;28;20491;-49
2022/08/22 02:14:57;;;;;;;3.77;2.87;;;16.50;99.90;;;;;;5241774;28;20444;-50
2022/08/22 02:17:31;;;;;;;4.20;2.77;;;16.50;99.90;;;;;;5241293;28;20427;-50
2022/08/22 02:20:38;;;;;;;3.63;3.17;;;16.50;99.90;;;;;;5238150;28;20435;-50
2022/08/22 02:23:45;;;;;;;5.23;3.50;;;16.50;99.90;;;;;;5236500;28;20989;-48
2022/08/22 02:26:42;;;;;;;3.47;3.17;;;16.40;99.90;;;;;;5237511;28;20514;-50
2022/08/22 02:29:17;;;;;;;2.37;2.27;;;16.40;99.90;;;;;;5243660;28;20808;-50
2022/08/22 02:31:59;;;;;;;2.93;2.67;;;16.40;99.90;;;;;;5243182;28;20944;-48
2022/08/22 02:34:51;;;;;;;3.53;2.80;;;16.40;99.90;;;;;;5232553;28;20489;-50
2022/08/22 02:37:52;;;;;;;3.77;3.30;;;16.40;99.90;;;;;;5240744;28;20481;-50
2022/08/22 02:40:39;;;;;;;4.73;3.40;;;16.30;99.90;;;;;;5237073;28;20441;-48
2022/08/22 02:43:25;;;;;;;4.30;3.20;;;16.20;99.90;;;;;;5238608;28;20543;-49
2022/08/22 02:46:02;;;;;;;3.03;2.73;;;16.20;99.90;;;;;;5242878;28;20444;-49
2022/08/22 02:48:49;;;;;;;3.27;2.93;;;16.20;99.90;;;;;;5233488;28;20470;-49
2022/08/22 02:51:41;;;;;;;3.73;3.40;;;16.20;99.90;;;;;;5240071;28;20448;-49
2022/08/22 02:54:36;;;;;;;3.37;3.07;;;16.20;99.90;;;;;;5244373;28;20468;-50
2022/08/22 02:57:39;;;;;;;3.50;3.30;;;16.20;99.90;;;;;;5239695;28;20432;-49
2022/08/22 03:00:20;;;;;;;4.23;3.83;;;16.20;99.90;;;;;;5230377;28;20448;-48
2022/08/22 03:02:51;;;;;;;6.33;4.13;;;16.20;99.90;;;;;;5242239;28;20437;-51
2022/08/22 03:05:37;;;;;;;4.60;3.67;;;16.30;99.90;;;;;;5243140;28;20436;-51
2022/08/22 03:08:16;;;;;;;4.17;3.53;;;16.30;99.90;;;;;;5234670;28;20193;-49
2022/08/22 03:11:09;;;;;;;6.33;3.60;;;16.40;99.90;;;;;;5245687;28;20436;-51
2022/08/22 03:14:10;;;;;;;3.83;3.53;;;16.50;99.90;;;;;;5230583;28;20441;-49
2022/08/22 03:16:57;;;;;;;4.20;3.50;;;16.50;99.90;;;;;;5241820;28;20435;-48
2022/08/22 03:19:42;;;;;;;3.70;3.37;;;16.60;99.90;;;;;;5232278;28;20421;-51
2022/08/22 03:25:29;;;;;;;4.10;3.60;;;16.80;99.90;;;;;;5279265;22;20483;-50
2022/08/22 03:28:08;;;;;;;2.80;2.60;;;16.80;99.90;;;;;;5262527;28;20435;-47
2022/08/22 03:31:08;;;;;;;4.50;3.43;;;16.80;99.90;;;;;;5259303;28;20488;-47
2022/08/22 03:33:39;;;;;;;3.57;2.97;;;16.80;99.90;;;;;;5254793;28;20577;-46
2022/08/22 03:36:13;;;;;;;3.60;3.30;;;16.80;99.90;;;;;;5225454;28;20497;-48
2022/08/22 03:38:50;;;;;;;4.33;3.60;;;16.80;99.90;;;;;;5244651;28;20468;-47
2022/08/22 03:41:57;;;;;;;5.67;3.77;;;16.80;99.90;;;;;;5232687;28;20476;-47
2022/08/22 03:44:31;;;;;;;6.80;3.57;;;16.80;99.90;;;;;;5237164;28;20456;-48
2022/08/22 03:47:20;;;;;;;3.43;3.23;;;16.70;99.90;;;;;;5237455;28;20482;-50
2022/08/22 03:50:15;;;;;;;3.27;3.07;;;16.80;99.90;;;;;;5233021;28;20468;-47
2022/08/22 03:53:13;;;;;;;4.10;3.23;;;16.80;99.90;;;;;;5237463;28;20448;-48
2022/08/22 03:56:05;;;;;;;4.97;3.83;;;16.90;99.90;;;;;;5238714;28;20441;-48
2022/08/22 03:58:52;;;;;;;5.83;3.50;;;16.90;99.90;;;;;;5234848;28;20436;-50
2022/08/22 04:01:35;;;;;;;6.50;3.67;;;16.90;99.90;;;;;;5232702;28;20963;-47
2022/08/22 04:04:30;;;;;;;4.57;3.33;;;16.90;99.90;;;;;;5230650;28;20456;-47
2022/08/22 04:07:04;;;;;;;4.53;3.63;;;16.80;99.90;;;;;;5237593;28;20937;-48
2022/08/22 04:09:58;;;;;;;4.40;3.50;;;16.70;99.90;;;;;;5236703;28;21006;-48
2022/08/22 04:13:00;;;;;;;3.97;3.57;;;16.70;99.90;;;;;;5236931;28;20772;-47
2022/08/22 04:15:51;;;;;;;5.33;3.57;;;16.60;99.90;;;;;;5236779;28;21309;-47
2022/08/22 04:19:00;;;;;;;5.97;3.87;;;16.50;99.90;;;;;;5239681;28;20439;-47
2022/08/22 04:22:22;;;;;;;4.70;4.30;;;16.50;99.90;;;;;;5243342;28;20577;-47
2022/08/22 04:25:13;;;;;;;9.73;5.10;;;16.50;99.90;;;;;;5200616;28;20483;-47
2022/08/22 04:27:59;;;;;;;6.27;4.37;;;16.40;99.90;;;;;;5237744;28;20459;-49
2022/08/22 04:31:00;;;;;;;4.47;4.10;;;16.40;99.90;;;;;;5239118;28;20444;-47
2022/08/22 04:33:59;;;;;;;12.80;3.97;;;16.40;99.90;;;;;;5231370;28;20528;-47
2022/08/22 04:36:42;;;;;;;9.40;5.33;;;16.40;99.90;;;;;;5246764;28;20437;-50
2022/08/22 04:39:22;;;;;;;9.00;4.97;;;16.40;99.90;;;;;;5242729;28;20722;-49
2022/08/22 04:42:00;;;;;;;5.30;4.80;;;16.50;99.90;;;;;;5244039;28;20538;-47
2022/08/22 04:44:40;;;;;;;5.47;4.20;;;16.50;99.90;;;;;;5248147;28;21005;-47
2022/08/22 04:47:22;;;;;;;4.73;4.30;;;16.60;99.90;;;;;;5238209;28;20490;-47
2022/08/22 04:50:08;;;;;;;8.47;4.60;;;16.70;99.90;;;;;;5232270;28;21026;-51
2022/08/22 04:52:57;;;;;;;9.53;5.47;;;16.70;99.90;;;;;;5236424;28;20494;-47
2022/08/22 04:55:53;;;;;;;4.50;4.10;;;16.70;99.90;;;;;;5236821;28;20438;-46
2022/08/22 04:58:41;;;;;;;6.17;4.40;;;16.80;99.90;;;;;;5245242;28;20444;-49
2022/08/22 05:01:18;;;;;;;11.77;5.77;;;16.90;99.90;;;;;;5238391;28;21035;-47
2022/08/22 05:04:04;;;;;;;6.50;3.73;;;16.90;99.90;;;;;;5236857;28;20512;-47
2022/08/22 05:06:40;;;;;;;4.17;3.80;;;17.00;99.90;;;;;;5234793;28;20433;-47
2022/08/22 05:09:17;;;;;;;6.37;3.90;;;17.00;99.90;;;;;;5232945;28;20472;-47
2022/08/22 05:11:51;;;;;;;10.20;3.97;;;17.10;99.90;;;;;;5237165;28;20440;-48
2022/08/22 05:14:38;;;;;;;4.63;4.20;;;17.30;99.90;;;;;;5244345;28;20452;-47
2022/08/22 05:17:14;;;;;;;7.27;5.20;;;17.30;99.90;;;;;;5235383;28;20520;-48
2022/08/22 05:19:50;;;;;;;5.67;4.63;;;17.30;99.90;;;;;;5244971;28;20432;-49
2022/08/22 05:22:27;;;;;;;7.60;5.30;;;17.30;99.90;;;;;;5233665;28;20456;-49
2022/08/22 05:25:11;;;;;;;8.30;4.23;;;17.50;99.90;;;;;;5265998;28;20471;-48
2022/08/22 05:27:51;;;;;;;6.10;4.10;;;17.70;99.90;;;;;;5243724;28;20437;-48
2022/08/22 05:30:26;;;;;;;4.23;3.80;;;18.00;99.90;;;;;;5261919;28;20817;-47
2022/08/22 05:33:23;;;;;;;3.83;3.40;;;18.30;99.90;;;;;;5239356;28;20439;-48
2022/08/22 05:35:59;;;;;;;6.53;4.03;;;18.40;99.90;;;;;;5250425;28;21012;-48
2022/08/22 05:38:33;;;;;;;7.53;3.87;;;18.60;99.90;;;;;;5232292;28;20439;-51
2022/08/22 05:41:10;;;;;;;8.83;3.60;;;18.70;99.90;;;;;;5240091;28;20552;-48
2022/08/22 05:43:42;;;;;;;8.60;4.07;;;18.90;99.90;;;;;;5263429;28;20882;-47
2022/08/22 05:46:23;;;;;;;3.40;3.10;;;19.10;99.90;;;;;;5256977;28;20439;-48
2022/08/22 05:48:58;;;;;;;3.67;3.40;;;19.40;99.90;;;;;;5241448;28;20471;-48
2022/08/22 05:51:36;;;;;;;3.73;2.67;;;19.90;99.90;;;;;;5254568;28;20468;-47
2022/08/22 05:54:18;;;;;;;9.63;3.37;;;20.50;99.90;;;;;;5256201;28;20466;-47
2022/08/22 05:56:56;;;;;;;3.37;3.13;;;21.00;99.90;;;;;;5255342;28;20419;-47
2022/08/22 05:59:31;;;;;;;8.70;3.40;;;21.50;99.90;;;;;;5250849;28;20419;-48
2022/08/22 06:02:17;;;;;;;5.70;3.33;;;21.90;99.90;;;;;;5262949;28;20989;-46
2022/08/22 06:04:59;;;;;;;8.73;3.60;;;22.40;99.90;;;;;;5240066;28;20610;-47
2022/08/22 06:07:38;;;;;;;7.70;3.37;;;23.00;97.60;;;;;;5247978;28;20440;-49
2022/08/22 06:10:21;;;;;;;3.13;2.60;;;23.60;94.30;;;;;;5266978;28;20478;-47
2022/08/22 06:12:59;;;;;;;5.27;3.17;;;24.20;90.60;;;;;;5245565;28;20887;-48
2022/08/22 06:15:47;;;;;;;4.97;3.30;;;24.40;82.20;;;;;;5267368;28;20841;-45
2022/08/22 06:18:25;;;;;;;6.00;3.43;;;23.90;82.50;;;;;;5240754;28;20522;-52
2022/08/22 06:21:01;;;;;;;6.83;2.93;;;24.10;82.40;;;;;;5239350;28;20439;-52
2022/08/22 06:23:44;;;;;;;4.80;2.80;;;24.90;80.00;;;;;;5260893;28;20485;-49
2022/08/22 06:26:17;;;;;;;5.63;3.07;;;25.60;72.10;;;;;;5252801;28;20517;-48
2022/08/22 06:28:55;;;;;;;10.70;3.57;;;26.00;69.10;;;;;;5255839;28;20559;-49
2022/08/22 06:31:32;;;;;;;10.10;3.83;;;26.60;66.70;;;;;;5259291;28;20435;-48
2022/08/22 06:34:30;;;;;;;3.70;2.80;;;27.50;62.70;;;;;;5261732;28;20455;-51
2022/08/22 06:37:06;;;;;;;2.53;2.33;;;28.90;58.60;;;;;;5257483;28;20866;-48
2022/08/22 06:39:42;;;;;;;8.70;3.20;;;30.20;54.70;;;;;;5226480;28;20438;-49
2022/08/22 06:42:20;;;;;;;4.40;3.30;;;31.10;49.90;;;;;;5248142;28;20440;-48
2022/08/22 06:45:10;;;;;;;6.80;3.30;;;31.10;48.20;;;;;;5250465;28;20456;-47
2022/08/22 06:47:53;;;;;;;4.37;2.50;;;30.70;48.90;;;;;;5259597;28;20436;-48
2022/08/22 06:50:38;;;;;;;8.07;2.90;;;30.60;49.20;;;;;;5253894;28;20466;-48
2022/08/22 06:53:17;;;;;;;2.37;2.17;;;30.50;48.40;;;;;;5238914;28;20447;-48
2022/08/22 06:56:01;;;;;;;3.53;2.50;;;30.40;48.30;;;;;;5268184;28;20996;-48
2022/08/22 06:58:55;;;;;;;4.63;2.07;;;29.90;48.60;;;;;;5264538;28;20443;-47
2022/08/22 07:01:48;;;;;;;5.00;2.40;;;29.40;49.80;;;;;;5248571;28;20523;-49
2022/08/22 07:04:25;;;;;;;2.63;2.43;;;28.20;51.30;;;;;;5260560;28;20598;-48
2022/08/22 07:06:58;;;;;;;3.80;1.97;;;27.10;54.00;;;;;;5243440;28;20432;-49
2022/08/22 07:09:39;;;;;;;2.70;2.00;;;26.30;56.40;;;;;;5225393;28;20512;-50
2022/08/22 07:12:15;;;;;;;2.83;2.27;;;26.20;55.70;;;;;;5256023;28;20428;-49
2022/08/22 07:14:57;;;;;;;3.80;2.37;;;26.40;56.10;;;;;;5245352;28;20445;-47
2022/08/22 07:17:31;;;;;;;9.20;2.57;;;26.60;55.30;;;;;;5242907;28;20428;-51
2022/08/22 07:20:18;;;;;;;2.33;1.70;;;26.90;55.40;;;;;;5255543;28;20871;-48
2022/08/22 07:22:57;;;;;;;3.23;1.80;;;27.00;54.50;;;;;;5232306;28;20450;-46
2022/08/22 07:25:30;;;;;;;3.67;1.90;;;27.00;54.20;;;;;;5264404;28;21450;-49
2022/08/22 07:28:21;;;;;;;1.93;1.83;;;27.20;53.40;;;;;;5247335;28;20914;-48
2022/08/22 07:31:01;;;;;;;6.27;2.80;;;27.40;53.90;;;;;;5258498;28;20764;-48
2022/08/22 07:33:38;;;;;;;2.87;2.00;;;27.50;53.70;;;;;;5247628;28;20486;-48
2022/08/22 07:36:30;;;;;;;2.93;1.70;;;27.10;53.90;;;;;;5267065;28;20890;-48
2022/08/22 07:39:19;;;;;;;1.37;1.37;;;26.70;52.90;;;;;;5256785;28;20462;-50
2022/08/22 07:42:20;;;;;;;5.40;1.67;;;26.50;54.80;;;;;;5265104;28;20933;-47
2022/08/22 07:45:04;;;;;;;7.20;2.10;;;26.40;54.50;;;;;;5265670;28;20504;-48
2022/08/22 07:47:51;;;;;;;5.60;2.13;;;26.10;54.90;;;;;;5262649;28;20440;-47
2022/08/22 07:50:29;;;;;;;2.50;1.67;;;25.50;55.30;;;;;;5250670;28;20462;-49
2022/08/22 07:53:33;;;;;;;2.17;2.00;;;25.10;55.90;;;;;;5264851;28;20442;-49
2022/08/22 07:56:11;;;;;;;4.80;2.20;;;24.70;57.20;;;;;;5249187;28;20449;-48
2022/08/22 07:58:45;;;;;;;2.97;2.50;;;24.40;58.20;;;;;;5251944;28;20456;-49
2022/08/22 08:01:19;;;;;;;2.10;2.00;;;24.20;58.90;;;;;;5231146;28;20436;-49
2022/08/22 08:03:59;;;;;;;2.20;2.00;;;24.00;59.20;;;;;;5245443;28;20535;-46
2022/08/22 08:06:31;;;;;;;13.63;2.60;;;24.00;59.80;;;;;;5260411;28;20432;-52
2022/08/22 08:09:02;;;;;;;2.07;1.97;;;24.00;60.10;;;;;;5266639;28;20517;-48
2022/08/22 08:11:38;;;;;;;2.23;2.00;;;24.10;59.90;;;;;;5266959;28;20427;-48
2022/08/22 08:14:13;;;;;;;2.43;2.20;;;24.10;60.10;;;;;;5246852;28;20462;-52
2022/08/22 08:17:10;;;;;;;2.60;1.70;;;24.30;58.80;;;;;;5259199;28;20804;-50
2022/08/22 08:19:42;;;;;;;6.07;2.40;;;24.50;59.30;;;;;;5263169;28;21029;-47
2022/08/22 08:22:21;;;;;;;1.93;1.67;;;24.70;58.50;;;;;;5250187;28;20439;-50
2022/08/22 08:24:59;;;;;;;7.80;2.00;;;24.70;57.90;;;;;;5248247;28;20567;-52
2022/08/22 08:30:54;;;;;;;2.90;1.97;;;25.20;56.20;;;;;;5267202;28;20510;-47
2022/08/22 08:33:28;;;;;;;11.70;2.13;;;25.10;56.40;;;;;;5264933;28;20461;-48
2022/08/22 08:36:28;;;;;;;3.60;1.80;;;25.20;55.80;;;;;;5243624;28;20431;-48
2022/08/22 08:39:13;;;;;;;6.37;2.70;;;25.30;56.10;;;;;;5266218;28;20774;-49
2022/08/22 08:42:04;;;;;;;5.33;1.93;;;25.50;55.20;;;;;;5265819;28;20501;-49
2022/08/22 08:44:44;;;;;;;4.20;2.10;;;25.70;54.30;;;;;;5253340;28;20949;-49
2022/08/22 08:47:33;;;;;;;3.90;1.77;;;25.60;54.70;;;;;;5265574;28;20439;-47
2022/08/22 08:50:32;;;;;;;1.53;1.00;;;25.40;54.80;;;;;;5270690;28;20451;-48
2022/08/22 08:53:47;;;;;;;6.77;1.80;;;25.20;54.80;;;;;;5246921;28;20435;-49
2022/08/22 08:56:33;;;;;;;2.60;1.60;;;24.90;55.10;;;;;;5201067;28;20503;-47
2022/08/22 08:59:33;;;;;;;5.77;1.40;;;24.60;55.60;;;;;;5258059;28;20442;-48
2022/08/22 09:02:37;;;;;;;1.30;1.30;;;24.30;55.80;;;;;;5264390;28;21428;-47
2022/08/22 09:05:48;;;;;;;2.00;1.40;;;24.40;56.30;;;;;;5232518;28;20538;-49
2022/08/22 09:09:07;;;;;;;4.63;1.57;;;24.60;56.20;;;;;;5211562;28;20469;-45
2022/08/22 09:12:16;;;;;;;6.07;1.60;;;24.40;56.30;;;;;;5191680;28;20432;-49
2022/08/22 09:15:00;;;;;;;6.10;1.80;;;24.20;56.50;;;;;;5245100;28;20525;-49
2022/08/22 09:17:36;;;;;;;3.73;2.57;;;24.30;56.50;;;;;;5259791;28;20488;-51
2022/08/22 09:20:13;;;;;;;4.07;1.70;;;24.40;56.50;;;;;;5261032;28;20516;-47
2022/08/22 09:23:11;;;;;;;2.27;1.60;;;24.30;56.30;;;;;;5246941;28;20430;-48
2022/08/22 09:25:50;;;;;;;3.40;2.00;;;24.20;57.00;;;;;;5264697;28;20432;-48
2022/08/22 09:28:23;;;;;;;3.30;1.57;;;24.20;56.60;;;;;;5261928;28;20428;-47
2022/08/22 09:31:07;;;;;;;7.30;1.37;;;24.50;56.70;;;;;;5260481;28;20435;-47
2022/08/22 09:33:40;;;;;;;11.53;1.93;;;24.50;56.10;;;;;;5248020;28;20984;-49
2022/08/22 09:36:22;;;;;;;1.50;1.40;;;24.50;55.30;;;;;;5248421;28;20458;-47
2022/08/22 09:38:58;;;;;;;16.40;1.80;;;24.40;56.20;;;;;;5260918;28;20431;-48
2022/08/22 09:41:35;;;;;;;3.00;1.63;;;24.50;56.80;;;;;;5256500;28;20755;-49
2022/08/22 09:44:15;;;;;;;3.03;1.60;;;24.50;56.50;;;;;;5237087;28;20471;-48
2022/08/22 09:47:19;;;;;;;3.90;1.83;;;24.30;56.00;;;;;;5263088;28;20558;-47
2022/08/22 09:50:05;;;;;;;1.67;1.23;;;24.20;56.80;;;;;;5263118;28;20471;-47
2022/08/22 09:52:53;;;;;;;2.00;1.50;;;23.90;56.90;;;;;;5252080;28;20442;-48
2022/08/22 09:55:48;;;;;;;7.93;1.90;;;23.90;57.70;;;;;;5245000;28;20791;-49
2022/08/22 09:58:27;;;;;;;1.60;1.50;;;24.20;57.50;;;;;;5247534;28;20946;-48
2022/08/22 10:01:09;;;;;;;6.97;2.00;;;24.50;57.20;;;;;;5259093;28;21342;-49
2022/08/22 10:03:58;;;;;;;6.80;2.13;;;24.70;56.70;;;;;;5247806;28;20479;-48
2022/08/22 10:06:56;;;;;;;1.27;1.17;;;24.60;56.20;;;;;;5259827;28;20503;-50
2022/08/22 10:09:37;;;;;;;3.20;1.10;;;24.60;55.50;;;;;;5246233;28;20463;-49
2022/08/22 10:12:14;;;;;;;3.00;1.23;;;24.90;55.50;;;;;;5237741;28;20442;-49
2022/08/22 10:15:28;;;;;;;1.40;1.30;;;25.00;54.40;;;;;;5252609;28;20545;-48
2022/08/22 10:18:14;;;;;;;8.30;2.20;;;24.90;54.20;;;;;;5247850;28;20554;-49
2022/08/22 10:21:13;;;;;;;5.73;1.40;;;24.80;54.90;;;;;;5256382;28;20428;-50
2022/08/22 10:24:00;;;;;;;2.37;1.57;;;24.80;54.40;;;;;;5244200;28;20546;-50
2022/08/22 10:26:41;;;;;;;9.73;2.40;;;24.80;52.30;;;;;;5261530;28;20435;-48
2022/08/22 10:29:51;;;;;;;2.10;1.43;;;24.60;53.70;;;;;;5265956;28;20506;-48
2022/08/22 10:32:26;;;;;;;9.63;2.30;;;24.70;53.50;;;;;;5246661;28;20431;-50
2022/08/22 10:35:32;;;;;;;5.70;1.63;;;24.70;52.80;;;;;;5259598;28;20461;-47
2022/08/22 10:38:11;;;;;;;5.30;1.60;;;24.60;53.80;;;;;;5219204;28;20538;-48
2022/08/22 10:40:55;;;;;;;2.93;1.70;;;24.80;53.70;;;;;;5260985;28;20431;-49
2022/08/22 10:43:52;;;;;;;11.93;1.90;;;24.60;53.80;;;;;;5257779;28;20455;-49
2022/08/22 10:46:33;;;;;;;3.67;2.00;;;24.30;54.50;;;;;;5252955;28;20443;-49
2022/08/22 10:49:28;;;;;;;3.53;1.40;;;24.10;55.40;;;;;;5245962;28;20463;-49
2022/08/22 10:52:17;;;;;;;3.43;1.70;;;24.10;54.80;;;;;;5264501;28;20483;-47
2022/08/22 10:54:59;;;;;;;3.80;1.50;;;24.00;54.50;;;;;;5244247;28;20971;-50
2022/08/22 10:57:43;;;;;;;3.70;1.50;;;24.10;54.80;;;;;;5244931;28;20946;-49
2022/08/22 11:00:32;;;;;;;1.67;1.57;;;24.20;54.80;;;;;;5266104;28;20535;-49
2022/08/22 11:03:24;;;;;;;2.00;1.40;;;24.60;55.30;;;;;;5263946;28;20435;-50
2022/08/22 11:06:04;;;;;;;16.10;1.57;;;24.70;52.90;;;;;;5249172;28;20439;-47
2022/08/22 11:08:53;;;;;;;4.10;2.30;;;24.90;53.60;;;;;;5245659;28;20915;-47
2022/08/22 11:11:47;;;;;;;2.97;1.27;;;24.80;54.40;;;;;;5256830;28;20470;-49
2022/08/22 11:14:49;;;;;;;4.33;1.53;;;24.70;54.90;;;;;;5252813;28;20472;-48
2022/08/22 11:17:44;;;;;;;3.10;1.27;;;24.70;53.40;;;;;;5268856;28;20830;-49
2022/08/22 11:20:32;;;;;;;4.77;1.80;;;24.90;52.80;;;;;;5248873;28;20432;-49
2022/08/22 11:23:20;;;;;;;3.60;1.57;;;25.10;53.10;;;;;;5251677;28;21076;-49
2022/08/22 11:26:19;;;;;;;1.30;1.20;;;25.20;51.40;;;;;;5262275;28;20450;-52
2022/08/22 11:29:25;;;;;;;4.93;1.77;;;25.20;51.50;;;;;;5256218;28;20475;-48
2022/08/22 11:32:07;;;;;;;4.23;1.63;;;25.40;51.60;;;;;;5243925;28;20448;-51
2022/08/22 11:34:58;;;;;;;2.40;1.00;;;25.20;51.60;;;;;;5244535;28;20865;-49
2022/08/22 11:37:50;;;;;;;3.03;1.60;;;25.00;51.80;;;;;;5273834;28;20578;-49
2022/08/22 11:40:34;;;;;;;3.33;1.63;;;25.10;50.90;;;;;;5265967;28;20519;-48
2022/08/22 11:43:30;;;;;;;1.00;0.97;;;24.90;50.90;;;;;;5267943;28;20891;-48
2022/08/22 11:46:19;;;;;;;3.57;1.70;;;24.80;51.60;;;;;;5260887;28;20455;-50
2022/08/22 11:49:07;;;;;;;4.90;1.97;;;24.80;52.30;;;;;;5246239;28;20469;-50
2022/08/22 11:51:54;;;;;;;3.50;1.37;;;24.50;52.80;;;;;;5246184;28;20467;-48
2022/08/22 11:54:35;;;;;;;2.20;1.70;;;24.30;53.30;;;;;;5267877;28;20983;-50
2022/08/22 11:57:16;;;;;;;2.67;1.60;;;24.40;53.20;;;;;;5251479;28;20768;-48
2022/08/22 12:00:01;;;;;;;16.83;1.80;;;24.40;53.60;;;;;;5258901;28;20461;-50
2022/08/22 12:02:32;;;;;;;3.77;1.87;;;24.60;53.50;;;;;;5252137;28;20428;-48
2022/08/22 12:05:20;;;;;;;1.17;1.00;;;24.60;52.80;;;;;;5255228;28;20455;-50
2022/08/22 12:08:04;;;;;;;2.80;1.57;;;24.50;52.90;;;;;;5264057;28;20291;-50
2022/08/22 12:11:16;;;;;;;3.13;2.20;;;24.30;53.80;;;;;;5248101;28;20486;-48
2022/08/22 12:14:30;;;;;;;2.00;1.40;;;24.10;54.10;;;;;;5252795;28;20438;-49
2022/08/22 12:17:21;;;;;;;4.53;1.83;;;24.20;54.10;;;;;;5236250;28;20438;-48
2022/08/22 12:20:11;;;;;;;3.70;1.60;;;24.30;54.50;;;;;;5265356;28;20459;-49
2022/08/22 12:22:48;;;;;;;2.83;1.97;;;24.40;54.40;;;;;;5259675;28;20452;-50
2022/08/22 12:25:57;;;;;;;1.93;1.80;;;24.50;53.30;;;;;;5265026;28;20466;-50
2022/08/22 12:29:01;;;;;;;7.93;2.07;;;24.60;53.60;;;;;;5247743;28;20435;-48
2022/08/22 12:31:41;;;;;;;4.17;1.57;;;24.80;52.50;;;;;;5247425;28;20515;-49
2022/08/22 12:34:41;;;;;;;2.00;1.67;;;24.80;52.50;;;;;;5259114;28;20486;-50
2022/08/22 12:37:24;;;;;;;2.53;1.60;;;24.70;51.40;;;;;;5249841;28;20447;-49
2022/08/22 12:40:22;;;;;;;1.67;1.30;;;24.80;52.30;;;;;;5247756;28;20948;-50
2022/08/22 12:43:02;;;;;;;1.17;1.10;;;25.00;52.40;;;;;;5247300;28;20459;-49
2022/08/22 12:45:42;;;;;;;11.80;1.47;;;25.10;50.60;;;;;;5250837;28;20436;-49
2022/08/22 12:48:34;;;;;;;3.07;1.70;;;25.00;50.00;;;;;;5238478;28;20436;-50
2022/08/22 12:51:38;;;;;;;2.60;1.30;;;24.80;50.50;;;;;;5261491;28;20977;-49
2022/08/22 12:54:27;;;;;;;2.70;1.40;;;24.80;50.90;;;;;;5244128;28;20443;-50
2022/08/22 12:57:14;;;;;;;2.97;1.27;;;24.80;50.80;;;;;;5245823;28;20464;-49
2022/08/22 12:59:48;;;;;;;1.77;1.47;;;24.60;50.60;;;;;;5240289;28;21010;-53
2022/08/22 13:02:26;;;;;;;6.10;2.00;;;24.70;50.70;;;;;;5248977;28;20435;-49
2022/08/22 13:05:01;;;;;;;1.87;1.77;;;24.90;51.20;;;;;;5265105;28;20950;-50
2022/08/22 13:07:34;;;;;;;1.67;1.40;;;24.90;50.90;;;;;;5269785;28;20435;-47
2022/08/22 13:10:13;;;;;;;1.33;1.23;;;24.90;51.20;;;;;;5261319;28;20480;-48
2022/08/22 13:12:47;;;;;;;1.50;1.30;;;25.00;51.40;;;;;;5247844;28;21049;-49
2022/08/22 13:15:45;;;;;;;1.80;1.37;;;25.10;51.70;;;;;;5234194;28;20516;-48
2022/08/22 13:18:24;;;;;;;3.00;2.20;;;25.00;52.20;;;;;;5268734;28;20638;-48
2022/08/22 13:20:59;;;;;;;2.80;2.03;;;25.10;53.00;;;;;;5249203;28;20442;-49
2022/08/22 13:23:55;;;;;;;5.67;1.60;;;25.30;51.00;;;;;;5259468;28;20475;-50
2022/08/22 13:26:27;;;;;;;5.90;1.60;;;25.40;51.00;;;;;;5260900;28;20489;-49
2022/08/22 13:29:04;;;;;;;1.73;1.37;;;25.20;50.80;;;;;;5245441;28;20465;-56
2022/08/22 13:31:39;;;;;;;4.10;1.67;;;25.00;50.80;;;;;;5242183;28;20436;-49
2022/08/22 13:34:35;;;;;;;1.70;1.60;;;25.00;52.00;;;;;;5250186;28;20808;-49
2022/08/22 13:37:10;;;;;;;4.63;1.70;;;25.00;52.80;;;;;;5247474;28;20485;-50
2022/08/22 13:39:44;;;;;;;3.03;1.73;;;25.10;53.50;;;;;;5248837;28;20445;-49
2022/08/22 13:42:19;;;;;;;3.90;1.90;;;25.10;52.50;;;;;;5257519;28;20439;-48
2022/08/22 13:44:53;;;;;;;5.70;1.90;;;25.00;52.50;;;;;;5252627;28;20496;-50
2022/08/22 13:47:29;;;;;;;3.70;1.97;;;25.00;51.50;;;;;;5262848;28;20446;-53
2022/08/22 13:50:10;;;;;;;2.47;1.40;;;24.90;52.10;;;;;;5266354;28;20455;-50
2022/08/22 13:53:04;;;;;;;2.87;2.10;;;24.70;51.40;;;;;;5259474;28;20435;-51
2022/08/22 13:55:45;;;;;;;3.13;1.97;;;24.50;52.20;;;;;;5263171;28;20445;-50
2022/08/22 13:58:30;;;;;;;2.40;1.60;;;24.50;52.10;;;;;;5247653;28;20431;-48
2022/08/22 14:01:18;;;;;;;8.30;2.07;;;24.50;52.70;;;;;;5259300;28;20807;-49
2022/08/22 14:03:57;;;;;;;3.60;2.30;;;24.70;53.10;;;;;;5244508;28;20546;-50
2022/08/22 14:06:38;;;;;;;1.43;1.40;;;24.60;53.10;;;;;;5241626;28;20566;-51
2022/08/22 14:09:31;;;;;;;3.13;1.50;;;24.50;52.40;;;;;;5255534;28;20451;-50
2022/08/22 14:12:28;;;;;;;2.10;2.00;;;24.30;53.80;;;;;;5266367;28;20438;-50
2022/08/22 14:15:06;;;;;;;7.43;1.90;;;24.30;54.60;;;;;;5249227;28;20464;-49
2022/08/22 14:17:41;;;;;;;1.70;1.50;;;24.20;53.80;;;;;;5245347;28;20475;-50
2022/08/22 14:20:30;;;;;;;3.87;2.27;;;24.10;54.10;;;;;;5257824;28;20475;-48
2022/08/22 14:23:03;;;;;;;4.80;1.90;;;24.10;54.20;;;;;;5255465;28;20789;-48
2022/08/22 14:25:37;;;;;;;5.17;1.80;;;24.10;54.40;;;;;;5271928;28;20464;-50
2022/08/22 14:28:22;;;;;;;2.40;1.43;;;24.00;54.80;;;;;;5244113;28;20439;-50
2022/08/22 14:31:06;;;;;;;1.60;1.50;;;24.00;54.90;;;;;;5259997;28;20533;-50